sensor_id;sensor_type;location;lat;lon;timestamp;pressure;altitude;pressure_sealevel;temperature;humidity
49827;BME280;35715;51.570;6.036;2023-10-08T00:00:46;102110.50;;;19.58;66.54
49827;BME280;35715;51.570;6.036;2023-10-08T00:03:14;102114.63;;;19.53;66.57
49827;BME280;35715;51.570;6.036;2023-10-08T00:05:40;102123.13;;;19.49;66.87
49827;BME280;35715;51.570;6.036;2023-10-08T00:08:06;102110.13;;;19.50;66.80
49827;BME280;35715;51.570;6.036;2023-10-08T00:10:38;102121.41;;;19.49;66.61
49827;BME280;35715;51.570;6.036;2023-10-08T00:13:06;102124.94;;;19.50;66.62
49827;BME280;35715;51.570;6.036;2023-10-08T00:15:37;102109.03;;;19.47;66.73
49827;BME280;35715;51.570;6.036;2023-10-08T00:18:03;102121.97;;;19.44;66.71
49827;BME280;35715;51.570;6.036;2023-10-08T00:20:30;102118.38;;;19.42;66.57
49827;BME280;35715;51.570;6.036;2023-10-08T00:23:01;102119.97;;;19.38;66.45
49827;BME280;35715;51.570;6.036;2023-10-08T00:25:27;102116.34;;;19.36;66.36
49827;BME280;35715;51.570;6.036;2023-10-08T00:27:53;102119.81;;;19.35;66.78
49827;BME280;35715;51.570;6.036;2023-10-08T00:30:18;102131.88;;;19.33;66.68
49827;BME280;35715;51.570;6.036;2023-10-08T00:32:43;102128.47;;;19.34;66.51
49827;BME280;35715;51.570;6.036;2023-10-08T00:35:09;102131.66;;;19.28;66.77
49827;BME280;35715;51.570;6.036;2023-10-08T00:37:45;102124.56;;;19.26;66.79
49827;BME280;35715;51.570;6.036;2023-10-08T00:40:11;102127.09;;;19.24;66.72
49827;BME280;35715;51.570;6.036;2023-10-08T00:42:38;102127.59;;;19.17;66.89
49827;BME280;35715;51.570;6.036;2023-10-08T00:45:10;102126.66;;;19.17;66.79
49827;BME280;35715;51.570;6.036;2023-10-08T00:47:38;102121.19;;;19.12;66.80
49827;BME280;35715;51.570;6.036;2023-10-08T00:50:08;102135.03;;;19.09;66.65
49827;BME280;35715;51.570;6.036;2023-10-08T00:52:34;102130.44;;;19.05;66.72
49827;BME280;35715;51.570;6.036;2023-10-08T00:55:18;102139.59;;;18.97;67.22
49827;BME280;35715;51.570;6.036;2023-10-08T00:57:54;102147.84;;;18.88;67.35
49827;BME280;35715;51.570;6.036;2023-10-08T01:00:22;102162.41;;;18.85;67.18
49827;BME280;35715;51.570;6.036;2023-10-08T01:02:48;102150.09;;;18.82;67.30
49827;BME280;35715;51.570;6.036;2023-10-08T01:05:20;102149.09;;;18.80;67.54
49827;BME280;35715;51.570;6.036;2023-10-08T01:07:51;102151.63;;;18.78;67.67
49827;BME280;35715;51.570;6.036;2023-10-08T01:10:17;102159.53;;;18.80;67.76
49827;BME280;35715;51.570;6.036;2023-10-08T01:12:46;102158.56;;;18.78;67.60
49827;BME280;35715;51.570;6.036;2023-10-08T01:15:27;102168.06;;;18.76;67.75
49827;BME280;35715;51.570;6.036;2023-10-08T01:17:56;102152.28;;;18.74;67.79
49827;BME280;35715;51.570;6.036;2023-10-08T01:20:31;102148.56;;;18.71;68.11
49827;BME280;35715;51.570;6.036;2023-10-08T01:23:04;102141.53;;;18.70;67.93
49827;BME280;35715;51.570;6.036;2023-10-08T01:25:34;102137.94;;;18.68;68.17
49827;BME280;35715;51.570;6.036;2023-10-08T01:27:59;102138.66;;;18.65;68.34
49827;BME280;35715;51.570;6.036;2023-10-08T01:30:34;102139.59;;;18.66;68.27
49827;BME280;35715;51.570;6.036;2023-10-08T01:33:06;102138.66;;;18.65;68.17
49827;BME280;35715;51.570;6.036;2023-10-08T01:35:36;102137.88;;;18.66;68.36
49827;BME280;35715;51.570;6.036;2023-10-08T01:38:01;102136.22;;;18.68;68.34
49827;BME280;35715;51.570;6.036;2023-10-08T01:40:28;102138.75;;;18.67;68.45
49827;BME280;35715;51.570;6.036;2023-10-08T01:42:55;102131.00;;;18.68;68.39
49827;BME280;35715;51.570;6.036;2023-10-08T01:45:24;102125.84;;;18.70;68.43
49827;BME280;35715;51.570;6.036;2023-10-08T01:47:50;102137.31;;;18.72;68.35
49827;BME280;35715;51.570;6.036;2023-10-08T01:50:17;102126.06;;;18.73;68.47
49827;BME280;35715;51.570;6.036;2023-10-08T01:52:53;102133.06;;;18.74;68.30
49827;BME280;35715;51.570;6.036;2023-10-08T01:55:18;102139.13;;;18.73;68.53
49827;BME280;35715;51.570;6.036;2023-10-08T01:57:45;102132.88;;;18.71;68.74
49827;BME280;35715;51.570;6.036;2023-10-08T02:00:10;102140.81;;;18.72;68.72
49827;BME280;35715;51.570;6.036;2023-10-08T02:02:36;102136.31;;;18.70;68.51
49827;BME280;35715;51.570;6.036;2023-10-08T02:05:04;102132.81;;;18.69;68.57
49827;BME280;35715;51.570;6.036;2023-10-08T02:07:29;102129.38;;;18.70;68.63
49827;BME280;35715;51.570;6.036;2023-10-08T02:09:55;102139.84;;;18.70;68.90
49827;BME280;35715;51.570;6.036;2023-10-08T02:12:20;102151.03;;;18.68;68.76
49827;BME280;35715;51.570;6.036;2023-10-08T02:14:47;102159.50;;;18.63;68.97
49827;BME280;35715;51.570;6.036;2023-10-08T02:17:14;102157.72;;;18.62;68.99
49827;BME280;35715;51.570;6.036;2023-10-08T02:19:39;102153.22;;;18.60;68.93
49827;BME280;35715;51.570;6.036;2023-10-08T02:22:06;102136.56;;;18.58;69.32
49827;BME280;35715;51.570;6.036;2023-10-08T02:24:34;102124.22;;;18.55;69.30
49827;BME280;35715;51.570;6.036;2023-10-08T02:27:00;102124.22;;;18.55;69.36
49827;BME280;35715;51.570;6.036;2023-10-08T02:29:26;102135.47;;;18.54;69.39
49827;BME280;35715;51.570;6.036;2023-10-08T02:31:51;102145.84;;;18.53;69.33
49827;BME280;35715;51.570;6.036;2023-10-08T02:34:19;102144.78;;;18.49;69.60
49827;BME280;35715;51.570;6.036;2023-10-08T02:36:44;102150.81;;;18.48;69.57
49827;BME280;35715;51.570;6.036;2023-10-08T02:39:12;102155.88;;;18.45;69.77
49827;BME280;35715;51.570;6.036;2023-10-08T02:41:47;102172.25;;;18.42;69.62
49827;BME280;35715;51.570;6.036;2023-10-08T02:44:13;102160.81;;;18.40;69.63
49827;BME280;35715;51.570;6.036;2023-10-08T02:46:44;102173.72;;;18.37;69.72
49827;BME280;35715;51.570;6.036;2023-10-08T02:49:12;102173.53;;;18.34;69.73
49827;BME280;35715;51.570;6.036;2023-10-08T02:51:38;102176.16;;;18.34;70.01
49827;BME280;35715;51.570;6.036;2023-10-08T02:54:04;102177.88;;;18.34;69.89
49827;BME280;35715;51.570;6.036;2023-10-08T02:56:32;102179.56;;;18.33;69.96
49827;BME280;35715;51.570;6.036;2023-10-08T02:58:58;102179.50;;;18.32;69.83
49827;BME280;35715;51.570;6.036;2023-10-08T03:01:25;102189.75;;;18.29;69.90
49827;BME280;35715;51.570;6.036;2023-10-08T03:03:50;102191.41;;;18.26;69.99
49827;BME280;35715;51.570;6.036;2023-10-08T03:06:19;102191.22;;;18.23;70.05
49827;BME280;35715;51.570;6.036;2023-10-08T03:08:44;102197.34;;;18.24;69.96
49827;BME280;35715;51.570;6.036;2023-10-08T03:11:12;102185.81;;;18.20;70.17
49827;BME280;35715;51.570;6.036;2023-10-08T03:13:44;102188.16;;;18.16;70.45
49827;BME280;35715;51.570;6.036;2023-10-08T03:16:12;102177.72;;;18.16;70.39
49827;BME280;35715;51.570;6.036;2023-10-08T03:18:38;102181.94;;;18.14;70.47
49827;BME280;35715;51.570;6.036;2023-10-08T03:21:08;102181.94;;;18.14;70.47
49827;BME280;35715;51.570;6.036;2023-10-08T03:23:48;102207.78;;;18.09;70.35
49827;BME280;35715;51.570;6.036;2023-10-08T03:26:16;102177.09;;;18.05;70.58
49827;BME280;35715;51.570;6.036;2023-10-08T03:28:54;102188.97;;;18.00;70.69
49827;BME280;35715;51.570;6.036;2023-10-08T03:31:22;102171.34;;;17.96;70.36
49827;BME280;35715;51.570;6.036;2023-10-08T03:34:08;102192.22;;;17.96;70.63
49827;BME280;35715;51.570;6.036;2023-10-08T03:36:37;102196.63;;;17.97;70.65
49827;BME280;35715;51.570;6.036;2023-10-08T03:39:09;102214.09;;;17.98;70.89
49827;BME280;35715;51.570;6.036;2023-10-08T03:41:38;102201.84;;;17.97;70.94
49827;BME280;35715;51.570;6.036;2023-10-08T03:44:05;102203.47;;;17.95;70.86
49827;BME280;35715;51.570;6.036;2023-10-08T03:46:31;102191.22;;;17.94;70.96
49827;BME280;35715;51.570;6.036;2023-10-08T03:49:04;102189.53;;;17.94;70.79
49827;BME280;35715;51.570;6.036;2023-10-08T03:51:31;102176.38;;;17.93;70.49
49827;BME280;35715;51.570;6.036;2023-10-08T03:54:04;102203.19;;;17.90;70.54
49827;BME280;35715;51.570;6.036;2023-10-08T03:56:35;102192.38;;;17.84;70.47
49827;BME280;35715;51.570;6.036;2023-10-08T03:59:04;102201.69;;;17.80;70.47
49827;BME280;35715;51.570;6.036;2023-10-08T04:01:38;102211.06;;;17.77;70.36
49827;BME280;35715;51.570;6.036;2023-10-08T04:04:05;102218.53;;;17.70;70.45
49827;BME280;35715;51.570;6.036;2023-10-08T04:06:30;102208.88;;;17.69;70.53
49827;BME280;35715;51.570;6.036;2023-10-08T04:09:01;102207.38;;;17.73;70.51
49827;BME280;35715;51.570;6.036;2023-10-08T04:11:45;102196.03;;;17.72;70.39
49827;BME280;35715;51.570;6.036;2023-10-08T04:14:16;102201.16;;;17.71;70.31
49827;BME280;35715;51.570;6.036;2023-10-08T04:16:41;102185.50;;;17.71;70.31
49827;BME280;35715;51.570;6.036;2023-10-08T04:19:07;102181.91;;;17.69;70.43
49827;BME280;35715;51.570;6.036;2023-10-08T04:21:32;102189.81;;;17.70;69.84
49827;BME280;35715;51.570;6.036;2023-10-08T04:23:59;102176.59;;;17.67;70.08
49827;BME280;35715;51.570;6.036;2023-10-08T04:26:28;102181.00;;;17.68;70.27
49827;BME280;35715;51.570;6.036;2023-10-08T04:28:53;102210.34;;;17.64;70.07
49827;BME280;35715;51.570;6.036;2023-10-08T04:31:22;102217.16;;;17.62;70.02
49827;BME280;35715;51.570;6.036;2023-10-08T04:33:52;102217.16;;;17.62;70.21
49827;BME280;35715;51.570;6.036;2023-10-08T04:36:18;102217.06;;;17.61;70.18
49827;BME280;35715;51.570;6.036;2023-10-08T04:38:44;102228.13;;;17.56;70.13
49827;BME280;35715;51.570;6.036;2023-10-08T04:41:13;102236.75;;;17.55;70.00
49827;BME280;35715;51.570;6.036;2023-10-08T04:43:42;102233.19;;;17.53;70.25
49827;BME280;35715;51.570;6.036;2023-10-08T04:46:08;102222.91;;;17.56;70.07
49827;BME280;35715;51.570;6.036;2023-10-08T04:48:59;102235.78;;;17.53;70.01
49827;BME280;35715;51.570;6.036;2023-10-08T04:51:27;102243.31;;;17.49;70.43
49827;BME280;35715;51.570;6.036;2023-10-08T04:53:59;102262.50;;;17.49;70.25
49827;BME280;35715;51.570;6.036;2023-10-08T04:56:25;102273.63;;;17.47;70.32
49827;BME280;35715;51.570;6.036;2023-10-08T04:58:53;102266.63;;;17.46;70.34
49827;BME280;35715;51.570;6.036;2023-10-08T05:01:18;102271.84;;;17.46;70.29
49827;BME280;35715;51.570;6.036;2023-10-08T05:03:53;102278.66;;;17.44;70.57
49827;BME280;35715;51.570;6.036;2023-10-08T05:06:28;102274.34;;;17.44;70.37
49827;BME280;35715;51.570;6.036;2023-10-08T05:09:06;102271.56;;;17.41;70.41
49827;BME280;35715;51.570;6.036;2023-10-08T05:11:47;102273.16;;;17.39;70.46
49827;BME280;35715;51.570;6.036;2023-10-08T05:14:19;102263.50;;;17.38;70.62
49827;BME280;35715;51.570;6.036;2023-10-08T05:17:13;102259.22;;;17.38;70.78
49827;BME280;35715;51.570;6.036;2023-10-08T05:19:41;102259.22;;;17.38;71.05
49827;BME280;35715;51.570;6.036;2023-10-08T05:22:16;102247.75;;;17.36;71.09
49827;BME280;35715;51.570;6.036;2023-10-08T05:24:53;102260.59;;;17.33;71.16
49827;BME280;35715;51.570;6.036;2023-10-08T05:27:38;102263.94;;;17.31;71.12
49827;BME280;35715;51.570;6.036;2023-10-08T05:30:13;102255.19;;;17.30;71.05
49827;BME280;35715;51.570;6.036;2023-10-08T05:32:50;102242.16;;;17.30;71.06
49827;BME280;35715;51.570;6.036;2023-10-08T05:35:37;102226.41;;;17.29;71.04
49827;BME280;35715;51.570;6.036;2023-10-08T05:38:06;102232.47;;;17.28;71.04
49827;BME280;35715;51.570;6.036;2023-10-08T05:40:50;102222.81;;;17.27;71.07
49827;BME280;35715;51.570;6.036;2023-10-08T05:43:39;102237.38;;;17.23;70.88
49827;BME280;35715;51.570;6.036;2023-10-08T05:46:04;102245.03;;;17.20;70.92
49827;BME280;35715;51.570;6.036;2023-10-08T05:48:51;102249.22;;;17.18;71.47
49827;BME280;35715;51.570;6.036;2023-10-08T05:51:32;102256.25;;;17.19;71.46
49827;BME280;35715;51.570;6.036;2023-10-08T05:59:37;102280.50;;;17.18;71.36
49827;BME280;35715;51.570;6.036;2023-10-08T06:02:21;102267.47;;;17.18;71.51
49827;BME280;35715;51.570;6.036;2023-10-08T06:04:59;102263.97;;;17.17;71.52
49827;BME280;35715;51.570;6.036;2023-10-08T06:07:40;102255.34;;;17.18;71.72
49827;BME280;35715;51.570;6.036;2023-10-08T06:10:21;102260.66;;;17.20;71.59
49827;BME280;35715;51.570;6.036;2023-10-08T06:12:56;102248.53;;;17.20;71.57
49827;BME280;35715;51.570;6.036;2023-10-08T06:15:39;102257.34;;;17.23;71.63
49827;BME280;35715;51.570;6.036;2023-10-08T06:18:19;102260.66;;;17.20;71.85
49827;BME280;35715;51.570;6.036;2023-10-08T06:20:45;102267.66;;;17.21;71.82
49827;BME280;35715;51.570;6.036;2023-10-08T06:23:14;102266.06;;;17.23;72.05
49827;BME280;35715;51.570;6.036;2023-10-08T06:25:46;102273.06;;;17.24;71.91
49827;BME280;35715;51.570;6.036;2023-10-08T06:30:37;102276.50;;;17.23;72.18
49827;BME280;35715;51.570;6.036;2023-10-08T06:33:06;102277.41;;;17.24;72.31
49827;BME280;35715;51.570;6.036;2023-10-08T06:35:31;102286.13;;;17.24;72.27
49827;BME280;35715;51.570;6.036;2023-10-08T06:37:58;102297.56;;;17.26;72.54
49827;BME280;35715;51.570;6.036;2023-10-08T06:40:25;102296.75;;;17.27;72.72
49827;BME280;35715;51.570;6.036;2023-10-08T06:43:02;102305.59;;;17.29;72.65
49827;BME280;35715;51.570;6.036;2023-10-08T06:45:36;102304.88;;;17.32;72.75
49827;BME280;35715;51.570;6.036;2023-10-08T06:48:02;102310.28;;;17.35;72.78
49827;BME280;35715;51.570;6.036;2023-10-08T06:50:31;102295.75;;;17.38;72.63
49827;BME280;35715;51.570;6.036;2023-10-08T06:53:01;102295.03;;;17.41;72.30
49827;BME280;35715;51.570;6.036;2023-10-08T06:55:31;102299.63;;;17.45;72.54
49827;BME280;35715;51.570;6.036;2023-10-08T06:57:56;102298.72;;;17.45;72.35
49827;BME280;35715;51.570;6.036;2023-10-08T07:00:21;102335.06;;;17.42;72.70
49827;BME280;35715;51.570;6.036;2023-10-08T07:03:03;102342.72;;;17.38;73.28
49827;BME280;35715;51.570;6.036;2023-10-08T07:05:28;102348.13;;;17.42;73.26
49827;BME280;35715;51.570;6.036;2023-10-08T07:07:54;102359.44;;;17.42;74.01
49827;BME280;35715;51.570;6.036;2023-10-08T07:10:19;102363.38;;;17.35;73.82
49827;BME280;35715;51.570;6.036;2023-10-08T07:12:48;102361.38;;;17.31;74.15
49827;BME280;35715;51.570;6.036;2023-10-08T07:15:13;102357.13;;;17.33;74.25
49827;BME280;35715;51.570;6.036;2023-10-08T07:17:39;102366.97;;;17.37;74.41
49827;BME280;35715;51.570;6.036;2023-10-08T07:20:08;102369.88;;;17.42;74.39
49827;BME280;35715;51.570;6.036;2023-10-08T07:22:46;102372.97;;;17.50;74.72
49827;BME280;35715;51.570;6.036;2023-10-08T07:25:13;102365.53;;;17.56;74.66
49827;BME280;35715;51.570;6.036;2023-10-08T07:27:40;102365.03;;;17.62;74.44
49827;BME280;35715;51.570;6.036;2023-10-08T07:30:05;102364.25;;;17.63;74.85
49827;BME280;35715;51.570;6.036;2023-10-08T07:32:38;102366.84;;;17.63;74.58
49827;BME280;35715;51.570;6.036;2023-10-08T07:35:04;102359.81;;;17.62;75.17
49827;BME280;35715;51.570;6.036;2023-10-08T07:37:51;102365.81;;;17.61;75.58
49827;BME280;35715;51.570;6.036;2023-10-08T07:40:19;102358.91;;;17.61;76.11
49827;BME280;35715;51.570;6.036;2023-10-08T07:42:45;102357.22;;;17.62;75.71
49827;BME280;35715;51.570;6.036;2023-10-08T07:45:16;102365.94;;;17.62;76.24
49827;BME280;35715;51.570;6.036;2023-10-08T07:47:42;102359.91;;;17.63;76.53
49827;BME280;35715;51.570;6.036;2023-10-08T07:50:08;102359.81;;;17.62;77.52
49827;BME280;35715;51.570;6.036;2023-10-08T07:52:37;102379.31;;;17.67;77.43
49827;BME280;35715;51.570;6.036;2023-10-08T07:55:02;102376.28;;;17.61;77.98
49827;BME280;35715;51.570;6.036;2023-10-08T07:57:29;102378.41;;;17.53;79.23
49827;BME280;35715;51.570;6.036;2023-10-08T07:59:56;102376.31;;;17.34;82.16
49827;BME280;35715;51.570;6.036;2023-10-08T08:02:29;102378.75;;;17.17;84.37
49827;BME280;35715;51.570;6.036;2023-10-08T08:04:55;102383.97;;;17.17;82.65
49827;BME280;35715;51.570;6.036;2023-10-08T08:07:21;102386.38;;;17.14;84.34
49827;BME280;35715;51.570;6.036;2023-10-08T08:09:49;102393.78;;;17.22;83.72
49827;BME280;35715;51.570;6.036;2023-10-08T08:12:23;102391.19;;;17.22;83.79
49827;BME280;35715;51.570;6.036;2023-10-08T08:14:50;102389.38;;;17.20;83.39
49827;BME280;35715;51.570;6.036;2023-10-08T08:17:17;102393.78;;;17.22;84.35
49827;BME280;35715;51.570;6.036;2023-10-08T08:19:45;102391.97;;;17.20;85.18
49827;BME280;35715;51.570;6.036;2023-10-08T08:22:15;102398.19;;;17.23;84.65
49827;BME280;35715;51.570;6.036;2023-10-08T08:24:46;102398.00;;;17.19;85.54
49827;BME280;35715;51.570;6.036;2023-10-08T08:27:12;102400.19;;;17.13;86.37
49827;BME280;35715;51.570;6.036;2023-10-08T08:29:49;102406.63;;;17.18;85.80
49827;BME280;35715;51.570;6.036;2023-10-08T08:32:14;102408.72;;;17.11;87.30
49827;BME280;35715;51.570;6.036;2023-10-08T08:34:43;102413.34;;;17.15;87.65
49827;BME280;35715;51.570;6.036;2023-10-08T08:37:09;102417.06;;;17.18;87.04
49827;BME280;35715;51.570;6.036;2023-10-08T08:39:35;102425.56;;;17.02;88.92
49827;BME280;35715;51.570;6.036;2023-10-08T08:42:01;102431.69;;;16.64;92.03
49827;BME280;35715;51.570;6.036;2023-10-08T08:44:31;102439.53;;;16.53;92.68
49827;BME280;35715;51.570;6.036;2023-10-08T08:46:58;102442.47;;;16.57;91.48
49827;BME280;35715;51.570;6.036;2023-10-08T08:49:23;102451.84;;;16.67;90.20
49827;BME280;35715;51.570;6.036;2023-10-08T08:51:49;102459.47;;;16.77;88.95
49827;BME280;35715;51.570;6.036;2023-10-08T08:54:21;102464.38;;;16.73;90.66
49827;BME280;35715;51.570;6.036;2023-10-08T08:56:46;102453.56;;;16.80;89.21
49827;BME280;35715;51.570;6.036;2023-10-08T08:59:13;102467.69;;;16.83;89.59
49827;BME280;35715;51.570;6.036;2023-10-08T09:01:39;102463.22;;;16.81;89.66
49827;BME280;35715;51.570;6.036;2023-10-08T09:04:05;102461.81;;;16.86;89.79
49827;BME280;35715;51.570;6.036;2023-10-08T09:06:34;102461.34;;;16.92;89.96
49827;BME280;35715;51.570;6.036;2023-10-08T09:09:00;102461.38;;;16.80;90.71
49827;BME280;35715;51.570;6.036;2023-10-08T09:11:44;102463.22;;;16.56;90.99
49827;BME280;35715;51.570;6.036;2023-10-08T09:14:09;102459.28;;;16.49;90.71
49827;BME280;35715;51.570;6.036;2023-10-08T09:16:35;102452.38;;;16.49;90.72
49827;BME280;35715;51.570;6.036;2023-10-08T09:19:02;102455.22;;;16.41;91.12
49827;BME280;35715;51.570;6.036;2023-10-08T09:21:27;102464.66;;;16.39;90.53
49827;BME280;35715;51.570;6.036;2023-10-08T09:23:52;102464.75;;;16.40;90.60
49827;BME280;35715;51.570;6.036;2023-10-08T09:26:23;102462.88;;;16.51;89.24
49827;BME280;35715;51.570;6.036;2023-10-08T09:28:49;102461.69;;;16.46;88.33
49827;BME280;35715;51.570;6.036;2023-10-08T09:31:16;102476.38;;;16.45;88.67
49827;BME280;35715;51.570;6.036;2023-10-08T09:33:42;102483.19;;;16.43;88.42
49827;BME280;35715;51.570;6.036;2023-10-08T09:36:11;102475.72;;;16.48;88.69
49827;BME280;35715;51.570;6.036;2023-10-08T09:38:43;102468.63;;;16.59;87.61
49827;BME280;35715;51.570;6.036;2023-10-08T09:41:09;102468.22;;;16.53;87.54
49827;BME280;35715;51.570;6.036;2023-10-08T09:43:34;102465.44;;;16.63;88.33
49827;BME280;35715;51.570;6.036;2023-10-08T09:46:08;102463.63;;;16.62;88.28
49827;BME280;35715;51.570;6.036;2023-10-08T09:48:36;102466.34;;;16.63;87.32
49827;BME280;35715;51.570;6.036;2023-10-08T09:51:02;102471.34;;;16.60;87.28
49827;BME280;35715;51.570;6.036;2023-10-08T09:56:16;102458.31;;;16.60;86.86
49827;BME280;35715;51.570;6.036;2023-10-08T09:58:43;102461.56;;;16.70;87.74
49827;BME280;35715;51.570;6.036;2023-10-08T10:01:09;102463.97;;;16.92;87.07
49827;BME280;35715;51.570;6.036;2023-10-08T10:03:35;102459.22;;;17.25;85.95
49827;BME280;35715;51.570;6.036;2023-10-08T10:06:01;102455.50;;;17.34;84.24
49827;BME280;35715;51.570;6.036;2023-10-08T10:08:26;102450.66;;;17.41;83.46
49827;BME280;35715;51.570;6.036;2023-10-08T10:10:59;102456.50;;;17.63;82.79
49827;BME280;35715;51.570;6.036;2023-10-08T10:13:27;102445.25;;;18.19;81.39
49827;BME280;35715;51.570;6.036;2023-10-08T10:15:53;102440.97;;;18.78;79.05
49827;BME280;35715;51.570;6.036;2023-10-08T10:20:59;102461.78;;;18.90;77.84
49827;BME280;35715;51.570;6.036;2023-10-08T10:23:44;102461.78;;;18.61;77.71
49827;BME280;35715;51.570;6.036;2023-10-08T10:31:35;102461.78;;;18.61;79.27
49827;BME280;35715;51.570;6.036;2023-10-08T10:34:09;102458.50;;;18.79;79.23
49827;BME280;35715;51.570;6.036;2023-10-08T10:36:35;102465.56;;;18.52;78.76
49827;BME280;35715;51.570;6.036;2023-10-08T10:39:00;102460.53;;;18.26;80.57
49827;BME280;35715;51.570;6.036;2023-10-08T10:41:27;102458.53;;;18.09;80.93
49827;BME280;35715;51.570;6.036;2023-10-08T10:43:52;102462.00;;;18.08;81.57
49827;BME280;35715;51.570;6.036;2023-10-08T10:46:18;102456.91;;;18.24;80.78
49827;BME280;35715;51.570;6.036;2023-10-08T10:48:56;102462.84;;;18.22;80.46
49827;BME280;35715;51.570;6.036;2023-10-08T10:51:40;102467.84;;;18.32;80.49
49827;BME280;35715;51.570;6.036;2023-10-08T10:54:06;102453.06;;;18.33;79.71
49827;BME280;35715;51.570;6.036;2023-10-08T10:56:58;102455.25;;;18.40;80.73
49827;BME280;35715;51.570;6.036;2023-10-08T10:59:30;102461.28;;;18.39;80.25
49827;BME280;35715;51.570;6.036;2023-10-08T11:02:02;102464.75;;;18.24;81.27
49827;BME280;35715;51.570;6.036;2023-10-08T11:04:33;102464.78;;;18.11;81.05
49827;BME280;35715;51.570;6.036;2023-10-08T11:07:10;102465.69;;;18.12;81.80
49827;BME280;35715;51.570;6.036;2023-10-08T11:09:37;102466.38;;;18.09;81.22
49827;BME280;35715;51.570;6.036;2023-10-08T11:12:09;102456.50;;;17.90;81.94
49827;BME280;35715;51.570;6.036;2023-10-08T11:14:38;102466.44;;;17.69;83.16
49827;BME280;35715;51.570;6.036;2023-10-08T11:17:13;102467.03;;;17.65;83.30
49827;BME280;35715;51.570;6.036;2023-10-08T11:19:40;102465.84;;;17.73;83.38
49827;BME280;35715;51.570;6.036;2023-10-08T11:22:07;102466.31;;;17.81;82.72
49827;BME280;35715;51.570;6.036;2023-10-08T11:24:40;102467.44;;;17.98;82.44
49827;BME280;35715;51.570;6.036;2023-10-08T11:27:07;102471.59;;;18.09;81.75
49827;BME280;35715;51.570;6.036;2023-10-08T11:29:43;102465.88;;;18.15;82.02
49827;BME280;35715;51.570;6.036;2023-10-08T11:32:09;102453.06;;;18.33;81.09
49827;BME280;35715;51.570;6.036;2023-10-08T11:34:37;102457.25;;;18.44;80.75
49827;BME280;35715;51.570;6.036;2023-10-08T11:37:04;102454.84;;;18.77;81.03
49827;BME280;35715;51.570;6.036;2023-10-08T11:39:44;102450.84;;;19.12;77.65
49827;BME280;35715;51.570;6.036;2023-10-08T11:42:13;102447.16;;;19.23;77.74
49827;BME280;35715;51.570;6.036;2023-10-08T11:45:03;102434.28;;;18.68;78.25
49827;BME280;35715;51.570;6.036;2023-10-08T11:47:47;102439.94;;;18.46;78.27
49827;BME280;35715;51.570;6.036;2023-10-08T11:50:22;102444.31;;;18.32;79.78
49827;BME280;35715;51.570;6.036;2023-10-08T11:52:51;102445.97;;;18.45;79.58
49827;BME280;35715;51.570;6.036;2023-10-08T11:55:16;102438.41;;;18.50;79.40
49827;BME280;35715;51.570;6.036;2023-10-08T11:57:52;102440.28;;;18.37;79.85
49827;BME280;35715;51.570;6.036;2023-10-08T12:00:19;102434.94;;;18.36;79.66
49827;BME280;35715;51.570;6.036;2023-10-08T12:02:45;102440.69;;;18.30;80.09
49827;BME280;35715;51.570;6.036;2023-10-08T12:05:10;102439.84;;;18.16;80.54
49827;BME280;35715;51.570;6.036;2023-10-08T12:07:47;102432.72;;;18.14;80.79
49827;BME280;35715;51.570;6.036;2023-10-08T12:10:16;102427.38;;;18.12;81.09
49827;BME280;35715;51.570;6.036;2023-10-08T12:12:51;102424.50;;;18.07;81.38
49827;BME280;35715;51.570;6.036;2023-10-08T12:15:24;102419.56;;;18.12;82.25
49827;BME280;35715;51.570;6.036;2023-10-08T12:17:59;102415.34;;;18.14;81.62
49827;BME280;35715;51.570;6.036;2023-10-08T12:20:36;102410.72;;;18.10;82.37
49827;BME280;35715;51.570;6.036;2023-10-08T12:23:08;102403.28;;;18.16;82.11
49827;BME280;35715;51.570;6.036;2023-10-08T12:25:43;102397.00;;;18.27;82.69
49827;BME280;35715;51.570;6.036;2023-10-08T12:28:16;102416.84;;;18.39;82.48
49827;BME280;35715;51.570;6.036;2023-10-08T12:30:41;102413.72;;;18.44;81.76
49827;BME280;35715;51.570;6.036;2023-10-08T12:33:07;102407.19;;;18.38;82.46
49827;BME280;35715;51.570;6.036;2023-10-08T12:35:37;102410.06;;;18.27;82.46
49827;BME280;35715;51.570;6.036;2023-10-08T12:38:03;102405.50;;;18.38;82.92
49827;BME280;35715;51.570;6.036;2023-10-08T12:40:30;102408.06;;;18.52;81.95
49827;BME280;35715;51.570;6.036;2023-10-08T12:43:07;102412.81;;;18.59;82.21
49827;BME280;35715;51.570;6.036;2023-10-08T12:45:32;102408.50;;;18.59;80.69
49827;BME280;35715;51.570;6.036;2023-10-08T12:47:57;102405.44;;;18.67;81.08
49827;BME280;35715;51.570;6.036;2023-10-08T12:50:23;102403.22;;;18.73;80.39
49827;BME280;35715;51.570;6.036;2023-10-08T12:52:57;102394.34;;;18.71;80.78
49827;BME280;35715;51.570;6.036;2023-10-08T12:55:22;102393.88;;;18.48;80.42
49827;BME280;35715;51.570;6.036;2023-10-08T12:57:51;102388.53;;;18.32;81.39
49827;BME280;35715;51.570;6.036;2023-10-08T13:00:20;102390.53;;;18.36;81.48
49827;BME280;35715;51.570;6.036;2023-10-08T13:02:48;102380.44;;;18.42;81.60
49827;BME280;35715;51.570;6.036;2023-10-08T13:05:18;102383.31;;;18.32;81.78
49827;BME280;35715;51.570;6.036;2023-10-08T13:07:46;102376.53;;;18.20;82.07
49827;BME280;35715;51.570;6.036;2023-10-08T13:10:11;102372.75;;;18.30;81.64
49827;BME280;35715;51.570;6.036;2023-10-08T13:12:39;102372.06;;;18.33;82.01
49827;BME280;35715;51.570;6.036;2023-10-08T13:15:08;102365.97;;;18.47;81.43
49827;BME280;35715;51.570;6.036;2023-10-08T13:17:33;102360.72;;;18.47;81.08
49827;BME280;35715;51.570;6.036;2023-10-08T13:19:58;102362.03;;;18.25;81.97
49827;BME280;35715;51.570;6.036;2023-10-08T13:22:23;102352.31;;;18.38;82.07